Longdale, Oklahoma
Current Conditions -  °F | °C
As of 5:35 PM on Wednesday 22 Oct 2014 (Local Time) from KJWG Reporting Station
Moderate Rain Moderate Rain  
Wind Chill: 70°   Ceiling: 10000
Heat Index: 70°   Visibility: 10mi
Dew Point: 60°   Wind: 12mph
Humidity: 70%   Direction: 190°S
Pressure: 30.09"   Gusts: 18mph
Location:  36.13°N, 98.55°W
Report Text: KJWG 222235Z AUTO 19010G16KT 10SM RA SCT050 BKN100 OVC120 21/15 A3009 RMK AO2 T02090153
Loading
Personal Weather Stations






























Interactive Weather Map
Tropical Storm Tracking
New forecast layout! Learn more

10-Day Weather Forecast

Advertisements
Track Severe Weather on mobile